Time;durP1;ratioP1;P1;durP2;ratioP2;P2;SDS_P1;SDS_P2;PMS_P1;PMS_P2;Temp;Humidity;BMP_temperature;BMP_pressure;BME280_temperature;BME280_humidity;BME280_pressure;Samples;Min_cycle;Max_cycle;Signal;HPM_P1;HPM_P2
2022/01/28 07:01:02;;;;;;;;;48.00;39.20;;;;;10.59;67.83;103047.88;2067483;23;45222;-60
2022/01/28 07:02:02;;;;;;;;;44.25;38.00;;;;;10.60;67.73;103048.75;2050371;28;46956;-62
2022/01/28 07:03:04;;;;;;;;;50.50;42.25;;;;;10.59;67.86;103060.25;2050324;28;47923;-61
2022/01/28 07:04:04;;;;;;;;;56.00;45.60;;;;;10.59;67.63;103049.63;2050849;28;47191;-61
2022/01/28 07:05:05;;;;;;;;;52.00;41.75;;;;;10.58;67.82;103047.84;2051897;28;48137;-60
2022/01/28 07:06:05;;;;;;;;;53.50;42.50;;;;;10.58;67.58;103050.50;2053651;28;47143;-62
2022/01/28 07:07:06;;;;;;;;;52.75;42.75;;;;;10.56;67.97;103047.84;2050860;28;48056;-61
2022/01/28 07:08:08;;;;;;;;;51.00;43.25;;;;;10.56;67.80;103052.25;2050298;28;46124;-61
2022/01/28 07:09:09;;;;;;;;;55.40;43.20;;;;;10.56;67.82;103054.91;2050222;28;48222;-62
2022/01/28 07:10:10;;;;;;;;;53.20;44.40;;;;;10.54;67.72;103044.25;2050891;28;48267;-61
2022/01/28 07:11:10;;;;;;;;;51.00;41.75;;;;;10.55;67.79;103048.69;2050837;28;48025;-62
2022/01/28 07:12:11;;;;;;;;;51.25;41.25;;;;;10.56;67.97;103052.25;2050497;28;46230;-62
2022/01/28 07:13:14;;;;;;;;;53.25;43.00;;;;;10.56;67.70;103049.59;2050883;28;47161;-62
2022/01/28 07:14:15;;;;;;;;;50.60;41.20;;;;;10.56;67.92;103053.13;2050855;28;47480;-62
2022/01/28 07:15:16;;;;;;;;;57.00;45.75;;;;;10.55;67.97;103048.69;2050890;28;48183;-61
2022/01/28 07:16:16;;;;;;;;;53.50;42.50;;;;;10.55;67.66;103047.81;2050762;28;46228;-61
2022/01/28 07:17:17;;;;;;;;;51.75;41.00;;;;;10.56;67.66;103054.91;2050887;28;46892;-61
2022/01/28 07:18:17;;;;;;;;;54.75;42.75;;;;;10.56;67.82;103052.25;2050826;28;47133;-61
2022/01/28 07:19:17;;;;;;;;;51.75;41.75;;;;;10.56;67.71;103058.44;2050852;28;47322;-62
2022/01/28 07:20:18;;;;;;;;;48.25;41.00;;;;;10.56;67.85;103061.09;2050750;28;48110;-61
2022/01/28 07:21:18;;;;;;;;;51.75;43.25;;;;;10.56;67.83;103060.22;2050736;28;48073;-62
2022/01/28 07:22:19;;;;;;;;;59.00;45.75;;;;;10.56;67.81;103057.56;2050792;28;47548;-61
2022/01/28 07:23:19;;;;;;;;;54.25;44.00;;;;;10.57;67.61;103067.31;2050665;28;46796;-61
2022/01/28 07:24:20;;;;;;;;;51.25;40.75;;;;;10.57;67.82;103068.19;2050741;28;47214;-61
2022/01/28 07:25:20;;;;;;;;;53.25;44.00;;;;;10.57;67.71;103065.53;2050837;28;48136;-61
2022/01/28 07:26:20;;;;;;;;;54.25;44.75;;;;;10.57;67.67;103067.31;2050935;28;48090;-61
2022/01/28 07:27:21;;;;;;;;;56.00;46.50;;;;;10.57;67.76;103067.31;2050648;28;48337;-61
2022/01/28 07:28:23;;;;;;;;;52.25;44.00;;;;;10.56;67.72;103073.50;2050722;28;47783;-61
2022/01/28 07:29:28;;;;;;;;;50.00;41.00;;;;;10.54;67.92;103065.50;2050731;28;47444;-62
2022/01/28 07:30:28;;;;;;;;;48.80;39.20;;;;;10.55;67.63;103071.72;2050809;28;48440;-62
2022/01/28 07:31:29;;;;;;;;;53.75;43.25;;;;;10.56;67.91;103078.81;2050742;28;47397;-61
2022/01/28 07:32:29;;;;;;;;;58.50;46.00;;;;;10.56;67.69;103077.03;2050776;28;47722;-61
2022/01/28 07:33:30;;;;;;;;;64.50;46.75;;;;;10.55;67.98;103075.25;2050347;28;48003;-61
2022/01/28 07:34:31;;;;;;;;;55.00;45.25;;;;;10.56;67.72;103079.69;2050267;28;47710;-62
2022/01/28 07:35:32;;;;;;;;;53.20;43.20;;;;;10.55;67.78;103075.25;2050824;28;46108;-62
2022/01/28 07:36:36;;;;;;;;;57.50;46.75;;;;;10.56;67.52;103077.03;2050227;28;47052;-62
2022/01/28 07:37:37;;;;;;;;;55.40;44.40;;;;;10.56;67.52;103077.03;2050284;28;47398;-61
2022/01/28 07:38:38;;;;;;;;;54.80;43.60;;;;;10.56;67.74;103077.03;2050247;28;47010;-62
2022/01/28 07:39:38;;;;;;;;;49.75;39.50;;;;;10.56;67.78;103076.16;2050119;28;48224;-61
2022/01/28 07:40:38;;;;;;;;;54.50;43.00;;;;;10.57;67.71;103083.25;2050521;28;47263;-61
2022/01/28 07:41:39;;;;;;;;;49.25;41.00;;;;;10.57;67.71;103088.56;2050495;28;48276;-62
2022/01/28 07:42:40;;;;;;;;;51.00;42.00;;;;;10.57;67.70;103088.56;2050721;28;47573;-61
2022/01/28 07:43:42;;;;;;;;;51.25;40.00;;;;;10.57;67.89;103086.78;2050745;28;47367;-62
2022/01/28 07:44:42;;;;;;;;;49.20;39.80;;;;;10.58;67.63;103085.03;2050763;28;48057;-61
2022/01/28 07:45:43;;;;;;;;;49.25;41.00;;;;;10.58;67.52;103087.69;2050855;28;47163;-61
2022/01/28 07:46:44;;;;;;;;;53.00;42.40;;;;;10.58;67.69;103085.91;2050617;28;47141;-63
2022/01/28 07:47:44;;;;;;;;;51.50;42.50;;;;;10.59;67.53;103092.13;2050546;28;46779;-62
2022/01/28 07:48:45;;;;;;;;;55.75;45.50;;;;;10.58;67.65;103093.88;2050208;28;48118;-61
2022/01/28 07:49:46;;;;;;;;;51.25;42.75;;;;;10.59;67.66;103097.44;2050125;28;48179;-61
2022/01/28 07:50:46;;;;;;;;;55.25;45.00;;;;;10.59;67.74;103098.31;2050611;28;48224;-61
2022/01/28 07:51:48;;;;;;;;;52.50;42.50;;;;;10.59;67.52;103103.63;2050755;28;46988;-61
2022/01/28 07:52:48;;;;;;;;;49.20;39.80;;;;;10.59;67.49;103098.31;2050753;28;48261;-63
2022/01/28 07:53:50;;;;;;;;;51.25;41.75;;;;;10.60;67.75;103100.09;2050861;28;47398;-61
2022/01/28 07:54:50;;;;;;;;;47.20;38.80;;;;;10.60;67.64;103101.88;2050736;28;47203;-63
2022/01/28 07:55:51;;;;;;;;;31.25;29.25;;;;;10.59;67.36;103100.97;2050868;28;48311;-61
2022/01/28 07:56:53;;;;;;;;;20.75;19.50;;;;;10.60;67.61;103104.53;2050693;28;46637;-62
2022/01/28 07:57:54;;;;;;;;;55.40;43.40;;;;;10.58;67.36;103098.31;2050791;28;46988;-62
2022/01/28 07:58:54;;;;;;;;;55.25;44.75;;;;;10.59;67.43;103108.94;2050598;28;46028;-62
2022/01/28 07:59:55;;;;;;;;;52.25;42.50;;;;;10.59;67.64;103108.06;2050596;28;47126;-62
2022/01/28 08:00:56;;;;;;;;;51.40;43.00;;;;;10.60;67.65;103110.72;2050416;28;48023;-62
2022/01/28 08:01:56;;;;;;;;;53.50;41.75;;;;;10.59;67.44;103111.59;2050566;28;47665;-61
2022/01/28 08:02:57;;;;;;;;;49.25;42.75;;;;;10.59;67.31;103119.56;2050595;28;48423;-61
2022/01/28 08:03:57;;;;;;;;;48.50;39.25;;;;;10.59;67.26;103119.56;2050748;28;47307;-62
2022/01/28 08:04:58;;;;;;;;;48.75;40.25;;;;;10.59;67.28;103116.91;2050638;28;47162;-61
2022/01/28 08:05:58;;;;;;;;;54.00;44.75;;;;;10.59;67.43;103121.31;2058146;28;47970;-62
2022/01/28 08:06:59;;;;;;;;;48.25;40.00;;;;;10.59;67.10;103121.31;2049985;28;48070;-62
2022/01/28 08:08:04;;;;;;;;;48.00;40.50;;;;;10.59;67.34;103123.97;2050064;28;47241;-62
2022/01/28 08:09:04;;;;;;;;;38.40;30.60;;;;;10.59;67.26;103123.97;2050663;28;47362;-61
2022/01/28 08:10:06;;;;;;;;;46.75;38.25;;;;;10.59;67.21;103121.31;2050730;28;45329;-62
2022/01/28 08:11:06;;;;;;;;;50.40;41.80;;;;;10.59;67.18;103114.25;2050657;28;47464;-60
2022/01/28 08:12:07;;;;;;;;;52.00;40.00;;;;;10.59;67.45;103122.22;2050690;28;48385;-62
2022/01/28 08:13:07;;;;;;;;;50.50;41.50;;;;;10.59;67.27;103118.66;2050538;28;47246;-61
2022/01/28 08:14:09;;;;;;;;;50.25;38.25;;;;;10.58;67.39;103120.44;2050641;28;47301;-62
2022/01/28 08:15:09;;;;;;;;;52.20;41.80;;;;;10.59;67.47;103116.00;2050025;28;48359;-62
2022/01/28 08:16:10;;;;;;;;;54.75;42.50;;;;;10.58;67.09;103119.53;2041985;28;46114;-62
2022/01/28 08:17:11;;;;;;;;;51.75;42.25;;;;;10.59;67.22;103116.00;2049983;28;48374;-62
2022/01/28 08:18:12;;;;;;;;;51.40;42.60;;;;;10.59;67.47;103116.91;2049889;28;45335;-63
2022/01/28 08:19:12;;;;;;;;;53.50;42.25;;;;;10.59;67.29;103114.25;2050021;28;48026;-62
2022/01/28 08:20:13;;;;;;;;;51.50;40.50;;;;;10.58;67.38;103115.13;2050574;28;47333;-61
2022/01/28 08:21:17;;;;;;;;;51.80;41.20;;;;;10.59;67.38;103118.66;2050606;28;48427;-61
2022/01/28 08:22:17;;;;;;;;;53.80;45.20;;;;;10.59;67.19;103113.34;2050616;28;48246;-61
2022/01/28 08:23:18;;;;;;;;;55.00;45.00;;;;;10.59;67.10;103123.97;2050563;28;47507;-61
2022/01/28 08:24:19;;;;;;;;;55.00;43.80;;;;;10.59;67.25;103116.00;2050513;28;47613;-62
2022/01/28 08:25:22;;;;;;;;;47.75;40.50;;;;;10.59;67.35;103127.53;2050612;28;47287;-61
2022/01/28 08:26:24;;;;;;;;;53.20;43.80;;;;;10.59;67.07;103124.88;2050576;28;48331;-61
2022/01/28 08:27:24;;;;;;;;;53.80;43.00;;;;;10.58;67.20;103128.41;2050423;28;48556;-62
2022/01/28 08:28:25;;;;;;;;;50.75;42.75;;;;;10.59;67.12;103116.00;2050602;28;46862;-61
2022/01/28 08:29:25;;;;;;;;;48.00;40.25;;;;;10.58;67.24;103117.78;2050468;28;45999;-61
2022/01/28 08:30:27;;;;;;;;;50.25;41.50;;;;;10.60;67.08;103128.41;2050508;28;47206;-61
2022/01/28 08:31:27;;;;;;;;;55.60;43.00;;;;;10.59;67.40;103124.88;2050480;28;48191;-61
2022/01/28 08:32:28;;;;;;;;;54.50;43.25;;;;;10.59;66.93;103131.94;2049932;28;48247;-62
2022/01/28 08:33:28;;;;;;;;;50.75;42.25;;;;;10.60;67.12;103131.06;2049831;28;47249;-62
2022/01/28 08:34:29;;;;;;;;;45.25;37.25;;;;;10.59;67.08;103130.19;2050477;28;46775;-62
2022/01/28 08:35:32;;;;;;;;;55.50;45.25;;;;;10.60;67.16;103134.63;2050440;28;48175;-62
2022/01/28 08:36:33;;;;;;;;;53.00;45.20;;;;;10.60;67.15;103136.38;2050361;28;48380;-62
2022/01/28 08:37:34;;;;;;;;;55.40;44.20;;;;;10.61;66.99;103140.81;2050442;28;47610;-62
2022/01/28 08:38:44;;;;;;;;;53.50;44.00;;;;;10.63;67.04;103140.84;2050378;28;46038;-62
2022/01/28 08:39:44;;;;;;;;;56.40;44.60;;;;;10.63;67.22;103147.06;2050413;28;48376;-61
2022/01/28 08:40:45;;;;;;;;;54.25;42.75;;;;;10.64;66.98;103145.28;2050488;28;47433;-62
2022/01/28 08:41:47;;;;;;;;;50.25;41.25;;;;;10.64;67.25;103151.50;2050374;28;46901;-63
2022/01/28 08:42:47;;;;;;;;;49.80;41.20;;;;;10.66;67.11;103155.06;2050392;28;47980;-62
2022/01/28 08:43:48;;;;;;;;;50.75;42.00;;;;;10.65;67.10;103158.59;2050278;28;48014;-62
2022/01/28 08:44:49;;;;;;;;;51.75;42.75;;;;;10.67;66.86;103158.59;2052588;28;48034;-62
2022/01/28 08:45:49;;;;;;;;;50.25;42.00;;;;;10.67;66.85;103161.25;2054231;28;47899;-61
2022/01/28 08:46:50;;;;;;;;;51.75;43.00;;;;;10.67;66.92;103159.53;2050371;28;47235;-61
2022/01/28 08:47:50;;;;;;;;;52.75;41.50;;;;;10.68;66.96;103161.31;2050003;28;46764;-62
2022/01/28 08:48:51;;;;;;;;;51.50;42.50;;;;;10.70;66.88;103162.25;2050166;28;46308;-64
2022/01/28 08:49:52;;;;;;;;;51.25;41.25;;;;;10.70;66.75;103161.34;2049806;28;48043;-62
2022/01/28 08:50:53;;;;;;;;;53.00;43.25;;;;;10.71;67.08;103166.69;2049756;28;45997;-63
2022/01/28 08:51:53;;;;;;;;;50.25;42.50;;;;;10.72;66.92;103168.47;2050409;28;47155;-62
2022/01/28 08:52:53;;;;;;;;;50.00;42.00;;;;;10.73;67.07;103161.38;2051910;28;48032;-61
2022/01/28 08:53:54;;;;;;;;;52.50;42.25;;;;;10.73;66.99;103162.28;2052784;28;47914;-63
2022/01/28 08:54:55;;;;;;;;;48.00;38.75;;;;;10.73;66.93;103164.94;2049612;28;47436;-62
2022/01/28 08:55:56;;;;;;;;;53.00;43.50;;;;;10.73;66.61;103164.94;2050346;28;48200;-62
2022/01/28 08:56:56;;;;;;;;;53.00;42.75;;;;;10.74;66.58;103169.38;2050295;28;48426;-64
2022/01/28 08:57:57;;;;;;;;;50.75;42.50;;;;;10.74;66.93;103169.38;2050348;28;47101;-63
2022/01/28 08:58:57;;;;;;;;;50.25;39.75;;;;;10.75;66.51;103176.47;2050424;28;47320;-63
2022/01/28 08:59:58;;;;;;;;;51.50;41.50;;;;;10.76;66.81;103178.25;2050312;28;48019;-62
2022/01/28 09:00:59;;;;;;;;;49.00;40.60;;;;;10.76;66.50;103186.22;2049955;28;47382;-62
2022/01/28 09:02:00;;;;;;;;;49.25;41.00;;;;;10.77;66.57;103182.69;2050281;28;48215;-62
2022/01/28 09:03:00;;;;;;;;;51.25;40.00;;;;;10.77;66.53;103182.69;2050164;28;47615;-62
2022/01/28 09:04:01;;;;;;;;;33.75;32.00;;;;;10.78;66.47;103180.94;2050199;28;47188;-62
2022/01/28 09:05:01;;;;;;;;;42.50;37.25;;;;;10.77;66.04;103182.69;2050247;28;48217;-63
2022/01/28 09:06:02;;;;;;;;;48.50;39.75;;;;;10.77;66.03;103187.13;2049673;28;48181;-63
2022/01/28 09:07:03;;;;;;;;;43.80;34.60;;;;;10.77;66.15;103190.66;2049597;28;48233;-63
2022/01/28 09:08:09;;;;;;;;;42.20;36.20;;;;;10.77;65.98;103195.97;2049625;28;47541;-63
2022/01/28 09:09:09;;;;;;;;;43.00;36.40;;;;;10.77;65.96;103195.09;2049649;28;48619;-63
2022/01/28 09:10:18;;;;;;;;;40.00;36.75;;;;;10.77;65.66;103201.28;2050128;28;48180;-63
2022/01/28 09:13:55;;;;;;;;;34.80;31.80;;;;;10.77;65.66;103192.44;2017654;29;48068;-62
2022/01/28 09:14:57;;;;;;;;;36.00;31.40;;;;;10.76;65.50;103193.31;2037708;28;48196;-63
2022/01/28 09:15:58;;;;;;;;;41.60;34.00;;;;;10.75;65.48;103191.53;2049706;28;47104;-62
2022/01/28 09:16:58;;;;;;;;;47.25;35.25;;;;;10.75;65.60;103195.06;2050240;28;47203;-62
2022/01/28 09:17:59;;;;;;;;;39.25;34.25;;;;;10.75;65.48;103195.06;2050337;28;46994;-62
2022/01/28 09:19:00;;;;;;;;;39.75;35.25;;;;;10.75;65.28;103188.84;2050203;28;47633;-62
2022/01/28 09:20:02;;;;;;;;;38.60;33.80;;;;;10.76;65.47;103190.66;2049605;28;47061;-63
2022/01/28 09:21:03;;;;;;;;;38.00;32.40;;;;;10.75;65.66;103194.16;2041737;28;45360;-62
2022/01/28 09:22:03;;;;;;;;;41.00;36.50;;;;;10.74;65.60;103190.63;2049561;28;47099;-62
2022/01/28 09:23:04;;;;;;;;;36.00;34.00;;;;;10.75;65.30;103187.09;2050206;28;48228;-62
2022/01/28 09:24:05;;;;;;;;;36.40;33.40;;;;;10.76;65.51;103186.22;2050014;28;46325;-62
2022/01/28 09:25:06;;;;;;;;;38.75;32.50;;;;;10.76;65.35;103188.88;2050070;28;47270;-61
2022/01/28 09:26:07;;;;;;;;;39.40;34.80;;;;;10.75;65.25;103183.53;2052438;28;47248;-62
2022/01/28 09:27:08;;;;;;;;;38.80;34.80;;;;;10.77;65.16;103187.13;2050001;28;48534;-62
2022/01/28 09:28:09;;;;;;;;;35.25;33.25;;;;;10.77;65.52;103192.44;2052816;28;47139;-62
2022/01/28 09:29:09;;;;;;;;;38.60;32.40;;;;;10.78;64.98;103194.22;2050042;28;46132;-62
2022/01/28 09:30:10;;;;;;;;;36.75;32.75;;;;;10.77;65.17;103195.97;2050125;28;47751;-62
2022/01/28 09:31:11;;;;;;;;;35.60;32.40;;;;;10.78;65.24;103197.75;2050090;28;47187;-61
2022/01/28 09:32:11;;;;;;;;;42.00;33.75;;;;;10.78;65.24;103200.41;2050195;28;48302;-63
2022/01/28 09:33:12;;;;;;;;;35.50;33.50;;;;;10.79;65.32;103196.00;2049626;28;47378;-63
2022/01/28 09:34:13;;;;;;;;;39.00;35.00;;;;;10.79;65.20;103196.91;2049634;28;47478;-61
2022/01/28 09:35:15;;;;;;;;;36.25;32.00;;;;;10.80;65.38;103196.06;2052620;28;45881;-62
2022/01/28 09:36:16;;;;;;;;;36.80;32.40;;;;;10.81;64.99;103194.28;2050111;28;47700;-61
2022/01/28 09:37:16;;;;;;;;;35.25;30.25;;;;;10.81;65.13;103202.25;2049373;28;46898;-61
2022/01/28 09:38:17;;;;;;;;;32.50;31.50;;;;;10.80;64.82;103193.41;2049472;28;48293;-62
2022/01/28 09:39:19;;;;;;;;;43.25;36.75;;;;;10.82;64.94;103198.72;2050171;28;48183;-61
2022/01/28 09:40:20;;;;;;;;;38.40;33.80;;;;;10.82;64.75;103202.28;2057500;28;48439;-62
2022/01/28 09:41:22;;;;;;;;;36.60;32.20;;;;;10.83;64.79;103198.75;2057439;28;48364;-61
2022/01/28 09:42:27;;;;;;;;;31.60;27.00;;;;;10.84;64.83;103194.34;2057449;28;47534;-62
2022/01/28 09:43:28;;;;;;;;;36.40;33.20;;;;;10.83;64.73;103198.75;2056912;28;47465;-61
2022/01/28 09:44:31;;;;;;;;;36.75;31.50;;;;;10.84;64.78;103205.84;2050024;28;47534;-61
2022/01/28 09:45:32;;;;;;;;;36.80;33.00;;;;;10.85;64.58;103202.31;2049968;28;47358;-61
2022/01/28 09:46:33;;;;;;;;;42.75;35.00;;;;;10.85;64.88;103196.13;2049985;28;48084;-62
2022/01/28 09:47:34;;;;;;;;;40.00;33.20;;;;;10.86;64.38;103200.56;2050075;28;47646;-61
2022/01/28 09:48:35;;;;;;;;;39.25;34.50;;;;;10.86;64.14;103201.47;2050050;28;47781;-62
2022/01/28 09:49:37;;;;;;;;;37.25;34.00;;;;;10.86;64.50;103192.59;2050054;28;46362;-64
2022/01/28 09:50:37;;;;;;;;;30.80;29.00;;;;;10.85;64.48;103199.66;2049893;28;47550;-61
2022/01/28 09:51:38;;;;;;;;;33.75;32.00;;;;;10.86;64.59;103197.91;2050040;28;48225;-61
2022/01/28 09:52:38;;;;;;;;;32.50;30.75;;;;;10.87;64.18;103197.94;2050028;28;47420;-61
2022/01/28 09:53:39;;;;;;;;;37.25;31.25;;;;;10.87;64.40;103194.38;2052453;28;48287;-62
2022/01/28 09:54:43;;;;;;;;;37.75;30.75;;;;;10.87;64.01;103197.94;2050074;28;47334;-61
2022/01/28 09:55:45;;;;;;;;;26.80;24.80;;;;;10.89;64.02;103203.25;2050006;28;48295;-61
2022/01/28 09:56:46;;;;;;;;;41.40;34.40;;;;;10.89;63.98;103203.25;2049984;28;48078;-62
2022/01/28 09:57:52;;;;;;;;;37.00;34.00;;;;;10.89;63.97;103204.16;2049894;28;48317;-62
2022/01/28 09:58:52;;;;;;;;;35.00;32.60;;;;;10.88;63.91;103197.06;2052844;28;47567;-62
2022/01/28 09:59:53;;;;;;;;;32.25;30.75;;;;;10.88;63.95;103194.41;2049043;28;48168;-61
2022/01/28 10:00:53;;;;;;;;;30.75;27.50;;;;;10.89;63.91;103195.28;2049679;28;46971;-61
2022/01/28 10:01:54;;;;;;;;;32.50;31.00;;;;;10.89;63.95;103192.63;2049360;28;47239;-62
2022/01/28 10:02:59;;;;;;;;;33.20;32.00;;;;;10.89;63.77;103200.59;2043907;28;47974;-62
2022/01/28 10:04:03;;;;;;;;;32.60;30.20;;;;;10.90;64.10;103203.28;2049329;28;46112;-61
2022/01/28 10:05:29;;;;;;;;;33.80;27.20;;;;;10.90;63.74;103203.28;2049963;28;48266;-61
2022/01/28 10:06:34;;;;;;;;;35.40;31.80;;;;;10.91;63.89;103202.41;2049952;28;48234;-61
2022/01/28 10:07:35;;;;;;;;;35.20;27.40;;;;;10.93;63.76;103198.91;2050079;28;47246;-61
2022/01/28 10:08:36;;;;;;;;;34.75;30.00;;;;;10.94;63.47;103198.94;2050034;28;48413;-61
2022/01/28 10:09:54;;;;;;;;;36.60;32.80;;;;;10.95;63.65;103202.50;2052411;28;48056;-61
2022/01/28 10:11:11;;;;;;;;;32.60;29.80;;;;;10.95;63.67;103208.69;2049969;28;47266;-62
2022/01/28 10:12:24;;;;;;;;;30.00;29.60;;;;;10.94;63.60;103212.22;2049869;28;45418;-61
2022/01/28 10:13:34;;;;;;;;;27.40;25.60;;;;;10.95;63.58;103206.03;2049970;28;48654;-61
2022/01/28 10:14:34;;;;;;;;;32.20;29.20;;;;;10.95;63.70;103207.81;2049904;28;48300;-60
2022/01/28 10:15:34;;;;;;;;;31.25;26.50;;;;;10.95;63.69;103202.50;2053171;28;47395;-61
2022/01/28 10:16:35;;;;;;;;;32.25;28.50;;;;;10.95;63.71;103205.16;2054129;28;47189;-61
2022/01/28 10:17:57;;;;;;;;;30.00;26.75;;;;;10.95;63.73;103210.47;2049840;28;48171;-61
2022/01/28 10:18:59;;;;;;;;;36.80;33.00;;;;;10.95;63.60;103203.38;2049845;28;48173;-60
2022/01/28 10:20:06;;;;;;;;;36.20;32.40;;;;;10.97;63.67;103206.06;2052679;28;47743;-61
2022/01/28 10:21:29;;;;;;;;;36.00;30.20;;;;;10.97;63.45;103208.72;2049863;28;46416;-60
2022/01/28 10:22:32;;;;;;;;;33.40;26.60;;;;;10.97;63.46;103209.59;2049816;28;48256;-61
2022/01/28 10:23:32;;;;;;;;;35.40;32.60;;;;;10.97;63.36;103206.94;2049970;28;48262;-60
2022/01/28 10:24:33;;;;;;;;;29.25;27.75;;;;;10.96;63.25;103213.13;2050083;28;45270;-60
2022/01/28 10:25:36;;;;;;;;;35.00;30.00;;;;;10.96;63.28;103207.81;2049759;28;47037;-60
2022/01/28 10:26:47;;;;;;;;;33.20;30.00;;;;;10.96;63.37;103215.78;2049728;28;48292;-60
2022/01/28 10:28:05;;;;;;;;;37.00;33.20;;;;;10.96;63.36;103210.47;2049742;28;47406;-61
2022/01/28 10:29:12;;;;;;;;;36.20;32.00;;;;;10.98;63.28;103215.81;2049869;28;47475;-60
2022/01/28 10:30:19;;;;;;;;;32.60;32.00;;;;;10.96;63.50;103207.81;2049798;28;48098;-60
2022/01/28 10:31:19;;;;;;;;;32.20;28.80;;;;;10.98;63.37;103213.16;2049837;28;47211;-61
2022/01/28 10:32:26;;;;;;;;;31.75;28.50;;;;;10.98;63.22;103210.50;2049660;28;48322;-61
2022/01/28 10:33:27;;;;;;;;;33.40;29.20;;;;;10.98;63.41;103211.41;2049600;28;47347;-61
2022/01/28 10:34:43;;;;;;;;;28.00;26.00;;;;;10.98;63.16;103206.09;2049814;28;48142;-62
2022/01/28 10:35:54;;;;;;;;;29.40;26.40;;;;;10.99;63.41;103212.28;2049583;28;47226;-61
2022/01/28 10:37:16;;;;;;;;;35.40;32.40;;;;;11.00;63.46;103208.75;2049598;28;47873;-61
2022/01/28 10:38:31;;;;;;;;;25.40;24.80;;;;;11.00;63.34;103204.34;2049632;28;47400;-61
2022/01/28 10:39:39;;;;;;;;;30.40;28.60;;;;;11.00;63.25;103214.06;2049705;28;47523;-61
2022/01/28 10:40:40;;;;;;;;;30.60;28.20;;;;;11.00;62.89;103217.63;2049733;28;47152;-61
2022/01/28 10:41:58;;;;;;;;;28.25;26.25;;;;;11.00;63.06;103216.72;2049734;28;47954;-62
2022/01/28 10:42:59;;;;;;;;;28.60;28.00;;;;;11.00;63.03;103220.28;2049701;28;47184;-61
2022/01/28 10:44:00;;;;;;;;;28.75;26.00;;;;;11.01;63.40;103221.16;2049784;28;47163;-60
2022/01/28 10:45:10;;;;;;;;;24.00;23.80;;;;;11.02;62.99;103225.63;2049187;28;47954;-61
2022/01/28 10:46:10;;;;;;;;;30.80;27.00;;;;;11.03;63.45;103227.41;2049142;28;48338;-61
2022/01/28 10:47:11;;;;;;;;;26.50;25.50;;;;;11.03;63.27;103225.63;2049630;28;48198;-61
2022/01/28 10:48:22;;;;;;;;;28.25;26.50;;;;;11.06;62.89;103230.13;2049755;28;47319;-61
2022/01/28 10:49:32;;;;;;;;;33.80;28.20;;;;;11.05;62.48;103229.25;2049628;28;46984;-61
2022/01/28 10:50:38;;;;;;;;;30.00;29.40;;;;;11.05;62.73;103228.31;2049705;28;47437;-61
2022/01/28 10:51:50;;;;;;;;;27.00;24.40;;;;;11.05;62.63;103234.56;2049657;28;46297;-60
2022/01/28 10:53:10;;;;;;;;;29.60;26.60;;;;;11.04;62.75;103230.09;2049627;28;47513;-60
2022/01/28 10:54:13;;;;;;;;;32.80;27.60;;;;;11.05;62.55;103229.25;2049024;28;46974;-61
2022/01/28 10:55:18;;;;;;;;;34.80;32.00;;;;;11.05;62.66;103237.22;2049130;28;48482;-61
2022/01/28 10:56:18;;;;;;;;;32.80;31.20;;;;;11.07;62.52;103237.22;2049167;28;47810;-61
2022/01/28 10:57:19;;;;;;;;;27.50;27.50;;;;;11.06;62.61;103233.69;2049128;28;47481;-61
2022/01/28 10:58:25;;;;;;;;;26.00;25.25;;;;;11.06;62.82;103231.03;2049624;28;45895;-61
2022/01/28 10:59:33;;;;;;;;;27.80;25.00;;;;;11.08;62.59;103233.72;2049756;28;47257;-61
2022/01/28 11:00:40;;;;;;;;;29.60;27.60;;;;;11.08;62.37;103228.41;2049475;28;47532;-61
2022/01/28 11:01:42;;;;;;;;;28.40;27.00;;;;;11.10;62.31;103237.28;2049688;28;46996;-62
2022/01/28 11:02:42;;;;;;;;;27.40;23.00;;;;;11.09;62.43;103231.06;2049701;28;47191;-62
2022/01/28 11:03:43;;;;;;;;;30.25;26.50;;;;;11.10;62.49;103232.84;2048929;28;47866;-62
2022/01/28 11:04:43;;;;;;;;;31.50;28.25;;;;;11.12;62.41;103235.53;2049832;28;46266;-64
2022/01/28 11:05:45;;;;;;;;;29.25;27.00;;;;;11.12;62.37;103236.44;2051922;28;47626;-61
2022/01/28 11:06:47;;;;;;;;;36.20;31.80;;;;;11.13;62.44;103238.22;2052062;28;48017;-62
2022/01/28 11:07:48;;;;;;;;;22.40;22.40;;;;;11.14;62.19;103244.41;2052172;28;47235;-62
2022/01/28 11:08:48;;;;;;;;;32.00;28.20;;;;;11.15;62.51;103238.22;2051296;28;47256;-62
2022/01/28 11:09:49;;;;;;;;;26.25;24.25;;;;;11.16;62.01;103240.03;2049629;28;47205;-62
2022/01/28 11:10:50;;;;;;;;;30.25;27.50;;;;;11.16;62.01;103237.38;2053034;28;48309;-63
2022/01/28 11:11:53;;;;;;;;;22.20;21.60;;;;;11.18;62.16;103238.31;2050855;28;48559;-62
2022/01/28 11:12:54;;;;;;;;;29.00;26.00;;;;;11.17;61.93;103231.19;2051037;28;48172;-63
2022/01/28 11:13:55;;;;;;;;;28.20;26.20;;;;;11.18;62.05;103236.53;2050908;28;47146;-61
2022/01/28 11:14:57;;;;;;;;;28.60;26.80;;;;;11.19;61.96;103233.00;2052515;28;48292;-62
2022/01/28 11:15:57;;;;;;;;;33.20;29.00;;;;;11.19;62.01;103241.00;2052089;28;47409;-61
2022/01/28 11:16:59;;;;;;;;;29.75;28.50;;;;;11.20;62.02;103237.47;2051098;28;47321;-62
2022/01/28 11:18:01;;;;;;;;;27.40;26.40;;;;;11.22;62.22;103234.81;2051008;28;48135;-62
2022/01/28 11:19:03;;;;;;;;;29.40;27.20;;;;;11.23;61.96;103235.72;2050489;28;47211;-62
2022/01/28 11:20:06;;;;;;;;;25.40;22.60;;;;;11.23;61.99;103231.28;2050496;28;47127;-61
2022/01/28 11:21:13;;;;;;;;;28.00;23.20;;;;;11.24;61.70;103227.75;2051060;28;47068;-61
2022/01/28 11:22:28;;;;;;;;;31.40;25.60;;;;;11.23;61.81;103231.28;2051057;28;47487;-61
2022/01/28 11:23:40;;;;;;;;;28.00;24.80;;;;;11.23;61.94;103223.31;2050876;28;47774;-61
2022/01/28 11:25:01;;;;;;;;;23.80;19.80;;;;;11.25;61.83;103226.00;2050895;28;47412;-62
2022/01/28 11:26:28;;;;;;;;;28.20;26.00;;;;;11.26;61.77;103222.47;2050987;28;45486;-61
2022/01/28 11:27:31;;;;;;;;;26.60;24.00;;;;;11.27;61.77;103221.59;2050764;28;47372;-61
2022/01/28 11:28:42;;;;;;;;;28.80;23.80;;;;;11.27;61.97;103222.47;2050329;28;48014;-62
2022/01/28 11:29:42;;;;;;;;;30.20;26.00;;;;;11.27;61.73;103219.81;2050346;28;47301;-62
2022/01/28 11:30:50;;;;;;;;;30.50;25.50;;;;;11.27;62.15;103216.28;2058184;28;47270;-61
2022/01/28 11:31:55;;;;;;;;;31.00;29.40;;;;;11.29;61.68;103214.53;2057294;28;46190;-61
2022/01/28 11:33:00;;;;;;;;;31.60;28.80;;;;;11.29;61.73;103219.84;2050754;28;47882;-61
2022/01/28 11:34:01;;;;;;;;;32.00;28.00;;;;;11.29;61.67;103220.72;2050913;28;47537;-61
2022/01/28 11:35:02;;;;;;;;;28.75;28.75;;;;;11.30;62.03;103219.88;2050296;28;46792;-62
2022/01/28 11:36:06;;;;;;;;;21.80;19.20;;;;;11.30;61.86;103222.53;2042481;28;47805;-61
2022/01/28 11:37:12;;;;;;;;;28.80;28.00;;;;;11.30;61.60;103214.53;2050317;28;47020;-61
2022/01/28 11:38:39;;;;;;;;;29.40;29.20;;;;;11.31;61.65;103216.38;2050904;28;47431;-61
2022/01/28 11:39:45;;;;;;;;;21.40;21.40;;;;;11.31;61.39;103207.50;2042399;28;48505;-62
2022/01/28 11:40:52;;;;;;;;;24.60;23.20;;;;;11.31;61.59;103213.72;2050855;28;47431;-62
2022/01/28 11:42:13;;;;;;;;;31.00;29.00;;;;;11.32;61.48;103198.66;2050254;28;47278;-67
2022/01/28 11:43:25;;;;;;;;;30.20;27.20;;;;;11.33;61.59;103200.44;2050396;28;47104;-62
2022/01/28 11:44:50;;;;;;;;;33.00;30.80;;;;;11.32;61.49;103204.84;2050819;28;48356;-61
2022/01/28 11:46:10;;;;;;;;;26.80;24.40;;;;;11.33;61.43;103195.13;2050850;28;48224;-62
2022/01/28 11:47:19;;;;;;;;;30.40;28.20;;;;;11.33;61.27;103198.66;2051578;28;47445;-63
2022/01/28 11:48:20;;;;;;;;;31.20;27.40;;;;;11.34;61.44;103196.91;2050818;28;47044;-61
2022/01/28 11:49:21;;;;;;;;;33.00;25.00;;;;;11.33;61.27;103187.13;2050763;28;48027;-61
2022/01/28 11:50:23;;;;;;;;;31.20;26.80;;;;;11.34;61.15;103199.56;2050800;28;48255;-61